sensor_id;sensor_type;location;lat;lon;timestamp;temperature;humidity
14349;DHT22;7258;50.376;8.742;2023-06-24T00:00:41;16.10;99.90
14349;DHT22;7258;50.376;8.742;2023-06-24T00:02:44;16.00;99.90
14349;DHT22;7258;50.376;8.742;2023-06-24T00:04:47;16.00;99.90
14349;DHT22;7258;50.376;8.742;2023-06-24T00:06:50;16.00;99.90
14349;DHT22;7258;50.376;8.742;2023-06-24T00:08:54;16.00;99.90
14349;DHT22;7258;50.376;8.742;2023-06-24T00:11:02;15.90;99.90
14349;DHT22;7258;50.376;8.742;2023-06-24T00:13:06;15.90;99.90
14349;DHT22;7258;50.376;8.742;2023-06-24T00:15:09;15.80;99.90
14349;DHT22;7258;50.376;8.742;2023-06-24T00:17:13;15.80;99.90
14349;DHT22;7258;50.376;8.742;2023-06-24T00:19:19;15.70;99.90
14349;DHT22;7258;50.376;8.742;2023-06-24T00:21:22;15.60;99.90
14349;DHT22;7258;50.376;8.742;2023-06-24T00:23:31;15.60;99.90
14349;DHT22;7258;50.376;8.742;2023-06-24T00:25:35;15.50;99.90
14349;DHT22;7258;50.376;8.742;2023-06-24T00:27:38;15.50;99.90
14349;DHT22;7258;50.376;8.742;2023-06-24T00:29:43;15.50;99.90
14349;DHT22;7258;50.376;8.742;2023-06-24T00:31:46;15.40;99.90
14349;DHT22;7258;50.376;8.742;2023-06-24T00:33:49;15.40;99.90
14349;DHT22;7258;50.376;8.742;2023-06-24T00:35:54;15.40;99.90
14349;DHT22;7258;50.376;8.742;2023-06-24T00:37:58;15.30;99.90
14349;DHT22;7258;50.376;8.742;2023-06-24T00:40:01;15.30;99.90
14349;DHT22;7258;50.376;8.742;2023-06-24T00:42:05;15.30;99.90
14349;DHT22;7258;50.376;8.742;2023-06-24T00:44:09;15.30;99.90
14349;DHT22;7258;50.376;8.742;2023-06-24T00:46:13;15.30;99.90
14349;DHT22;7258;50.376;8.742;2023-06-24T00:48:17;15.20;99.90
14349;DHT22;7258;50.376;8.742;2023-06-24T00:50:20;15.20;99.90
14349;DHT22;7258;50.376;8.742;2023-06-24T00:52:23;15.20;99.90
14349;DHT22;7258;50.376;8.742;2023-06-24T00:54:26;15.20;99.90
14349;DHT22;7258;50.376;8.742;2023-06-24T00:56:34;15.10;99.90
14349;DHT22;7258;50.376;8.742;2023-06-24T00:58:40;15.10;99.90
14349;DHT22;7258;50.376;8.742;2023-06-24T01:00:45;15.00;99.90
14349;DHT22;7258;50.376;8.742;2023-06-24T01:02:50;15.00;99.90
14349;DHT22;7258;50.376;8.742;2023-06-24T01:04:54;15.00;99.90
14349;DHT22;7258;50.376;8.742;2023-06-24T01:06:57;14.90;99.90
14349;DHT22;7258;50.376;8.742;2023-06-24T01:09:01;14.90;99.90
14349;DHT22;7258;50.376;8.742;2023-06-24T01:11:04;14.90;99.90
14349;DHT22;7258;50.376;8.742;2023-06-24T01:13:07;14.90;99.90
14349;DHT22;7258;50.376;8.742;2023-06-24T01:15:10;14.90;99.90
14349;DHT22;7258;50.376;8.742;2023-06-24T01:17:16;14.90;99.90
14349;DHT22;7258;50.376;8.742;2023-06-24T01:19:47;14.80;99.90
14349;DHT22;7258;50.376;8.742;2023-06-24T01:22:04;14.80;99.90
14349;DHT22;7258;50.376;8.742;2023-06-24T01:24:34;14.80;99.90
14349;DHT22;7258;50.376;8.742;2023-06-24T01:27:06;14.70;99.90
14349;DHT22;7258;50.376;8.742;2023-06-24T01:29:32;14.70;99.90
14349;DHT22;7258;50.376;8.742;2023-06-24T01:31:45;14.70;99.90
14349;DHT22;7258;50.376;8.742;2023-06-24T01:33:55;14.70;99.90
14349;DHT22;7258;50.376;8.742;2023-06-24T01:36:01;14.60;99.90
14349;DHT22;7258;50.376;8.742;2023-06-24T01:38:09;14.60;99.90
14349;DHT22;7258;50.376;8.742;2023-06-24T01:40:18;14.60;99.90
14349;DHT22;7258;50.376;8.742;2023-06-24T01:42:23;14.60;99.90
14349;DHT22;7258;50.376;8.742;2023-06-24T01:44:28;14.60;99.90
14349;DHT22;7258;50.376;8.742;2023-06-24T01:46:32;14.60;99.90
14349;DHT22;7258;50.376;8.742;2023-06-24T01:48:37;14.60;99.90
14349;DHT22;7258;50.376;8.742;2023-06-24T01:50:44;14.60;99.90
14349;DHT22;7258;50.376;8.742;2023-06-24T01:52:50;14.60;99.90
14349;DHT22;7258;50.376;8.742;2023-06-24T01:54:56;14.60;99.90
14349;DHT22;7258;50.376;8.742;2023-06-24T01:57:03;14.50;99.90
14349;DHT22;7258;50.376;8.742;2023-06-24T01:59:09;14.50;99.90
14349;DHT22;7258;50.376;8.742;2023-06-24T02:01:13;14.50;99.90
14349;DHT22;7258;50.376;8.742;2023-06-24T02:03:17;14.40;99.90
14349;DHT22;7258;50.376;8.742;2023-06-24T02:05:24;14.40;99.90
14349;DHT22;7258;50.376;8.742;2023-06-24T02:07:28;14.40;99.90
14349;DHT22;7258;50.376;8.742;2023-06-24T02:09:32;14.40;99.90
14349;DHT22;7258;50.376;8.742;2023-06-24T02:11:37;14.40;99.90
14349;DHT22;7258;50.376;8.742;2023-06-24T02:13:40;14.30;99.90
14349;DHT22;7258;50.376;8.742;2023-06-24T02:15:45;14.30;99.90
14349;DHT22;7258;50.376;8.742;2023-06-24T02:17:51;14.30;99.90
14349;DHT22;7258;50.376;8.742;2023-06-24T02:19:58;14.30;99.90
14349;DHT22;7258;50.376;8.742;2023-06-24T02:22:04;14.30;99.90
14349;DHT22;7258;50.376;8.742;2023-06-24T02:24:11;14.30;99.90
14349;DHT22;7258;50.376;8.742;2023-06-24T02:26:15;14.30;99.90
14349;DHT22;7258;50.376;8.742;2023-06-24T02:28:18;14.30;99.90
14349;DHT22;7258;50.376;8.742;2023-06-24T02:30:23;14.20;99.90
14349;DHT22;7258;50.376;8.742;2023-06-24T02:32:27;14.30;99.90
14349;DHT22;7258;50.376;8.742;2023-06-24T02:34:30;14.30;99.90
14349;DHT22;7258;50.376;8.742;2023-06-24T02:36:33;14.30;99.90
14349;DHT22;7258;50.376;8.742;2023-06-24T02:38:38;14.20;99.90
14349;DHT22;7258;50.376;8.742;2023-06-24T02:40:43;14.30;99.90
14349;DHT22;7258;50.376;8.742;2023-06-24T02:42:46;14.20;99.90
14349;DHT22;7258;50.376;8.742;2023-06-24T02:44:50;14.20;99.90
14349;DHT22;7258;50.376;8.742;2023-06-24T02:46:53;14.20;99.90
14349;DHT22;7258;50.376;8.742;2023-06-24T02:48:57;14.20;99.90
14349;DHT22;7258;50.376;8.742;2023-06-24T02:51:02;14.20;99.90
14349;DHT22;7258;50.376;8.742;2023-06-24T02:53:05;14.10;99.90
14349;DHT22;7258;50.376;8.742;2023-06-24T02:55:10;14.10;99.90
14349;DHT22;7258;50.376;8.742;2023-06-24T02:57:13;14.10;99.90
14349;DHT22;7258;50.376;8.742;2023-06-24T02:59:17;14.00;99.90
14349;DHT22;7258;50.376;8.742;2023-06-24T03:01:24;14.00;99.90
14349;DHT22;7258;50.376;8.742;2023-06-24T03:03:29;14.00;99.90
14349;DHT22;7258;50.376;8.742;2023-06-24T03:05:35;14.00;99.90
14349;DHT22;7258;50.376;8.742;2023-06-24T03:07:39;14.00;99.90
14349;DHT22;7258;50.376;8.742;2023-06-24T03:09:43;13.90;99.90
14349;DHT22;7258;50.376;8.742;2023-06-24T03:11:47;13.90;99.90
14349;DHT22;7258;50.376;8.742;2023-06-24T03:13:51;13.90;99.90
14349;DHT22;7258;50.376;8.742;2023-06-24T03:15:54;13.90;99.90
14349;DHT22;7258;50.376;8.742;2023-06-24T03:17:57;13.90;99.90
14349;DHT22;7258;50.376;8.742;2023-06-24T03:20:00;13.80;99.90
14349;DHT22;7258;50.376;8.742;2023-06-24T03:22:03;13.80;99.90
14349;DHT22;7258;50.376;8.742;2023-06-24T03:24:07;13.80;99.90
14349;DHT22;7258;50.376;8.742;2023-06-24T03:26:09;13.90;99.90
14349;DHT22;7258;50.376;8.742;2023-06-24T03:28:14;13.90;99.90
14349;DHT22;7258;50.376;8.742;2023-06-24T03:30:17;13.90;99.90
14349;DHT22;7258;50.376;8.742;2023-06-24T03:32:19;13.90;99.90
14349;DHT22;7258;50.376;8.742;2023-06-24T03:34:22;13.90;99.90
14349;DHT22;7258;50.376;8.742;2023-06-24T03:36:26;13.90;99.90
14349;DHT22;7258;50.376;8.742;2023-06-24T03:38:29;13.90;99.90
14349;DHT22;7258;50.376;8.742;2023-06-24T03:40:33;13.90;99.90
14349;DHT22;7258;50.376;8.742;2023-06-24T03:42:35;13.90;99.90
14349;DHT22;7258;50.376;8.742;2023-06-24T03:44:40;13.90;99.90
14349;DHT22;7258;50.376;8.742;2023-06-24T03:46:43;13.90;99.90
14349;DHT22;7258;50.376;8.742;2023-06-24T03:48:45;14.00;99.90
14349;DHT22;7258;50.376;8.742;2023-06-24T03:50:48;14.00;99.90
14349;DHT22;7258;50.376;8.742;2023-06-24T03:52:51;14.00;99.90
14349;DHT22;7258;50.376;8.742;2023-06-24T03:54:54;14.10;99.90
14349;DHT22;7258;50.376;8.742;2023-06-24T03:56:57;14.10;99.90
14349;DHT22;7258;50.376;8.742;2023-06-24T03:59:00;14.10;99.90
14349;DHT22;7258;50.376;8.742;2023-06-24T04:01:09;14.10;99.90
14349;DHT22;7258;50.376;8.742;2023-06-24T04:03:12;14.20;99.90
14349;DHT22;7258;50.376;8.742;2023-06-24T04:05:15;14.30;99.90
14349;DHT22;7258;50.376;8.742;2023-06-24T04:07:18;14.40;99.90
14349;DHT22;7258;50.376;8.742;2023-06-24T04:09:29;14.40;99.90
14349;DHT22;7258;50.376;8.742;2023-06-24T04:11:32;14.40;99.90
14349;DHT22;7258;50.376;8.742;2023-06-24T04:13:36;14.40;99.90
14349;DHT22;7258;50.376;8.742;2023-06-24T04:15:39;14.40;99.90
14349;DHT22;7258;50.376;8.742;2023-06-24T04:17:43;14.50;99.90
14349;DHT22;7258;50.376;8.742;2023-06-24T04:19:46;14.50;99.90
14349;DHT22;7258;50.376;8.742;2023-06-24T04:21:49;14.50;99.90
14349;DHT22;7258;50.376;8.742;2023-06-24T04:23:52;14.50;99.90
14349;DHT22;7258;50.376;8.742;2023-06-24T04:25:55;14.60;99.90
14349;DHT22;7258;50.376;8.742;2023-06-24T04:27:58;14.60;99.90
14349;DHT22;7258;50.376;8.742;2023-06-24T04:30:01;14.70;99.90
14349;DHT22;7258;50.376;8.742;2023-06-24T04:32:04;14.70;99.90
14349;DHT22;7258;50.376;8.742;2023-06-24T04:34:08;14.80;99.90
14349;DHT22;7258;50.376;8.742;2023-06-24T04:36:11;14.80;99.90
14349;DHT22;7258;50.376;8.742;2023-06-24T04:38:14;14.90;99.90
14349;DHT22;7258;50.376;8.742;2023-06-24T04:40:20;14.90;99.90
14349;DHT22;7258;50.376;8.742;2023-06-24T04:42:23;15.00;99.90
14349;DHT22;7258;50.376;8.742;2023-06-24T04:44:27;15.10;99.90
14349;DHT22;7258;50.376;8.742;2023-06-24T04:46:37;15.20;99.90
14349;DHT22;7258;50.376;8.742;2023-06-24T04:48:41;15.20;99.90
14349;DHT22;7258;50.376;8.742;2023-06-24T04:50:46;15.30;99.90
14349;DHT22;7258;50.376;8.742;2023-06-24T04:52:52;15.40;99.90
14349;DHT22;7258;50.376;8.742;2023-06-24T04:54:56;15.40;99.90
14349;DHT22;7258;50.376;8.742;2023-06-24T04:56:58;15.40;99.90
14349;DHT22;7258;50.376;8.742;2023-06-24T04:59:01;15.50;99.90
14349;DHT22;7258;50.376;8.742;2023-06-24T05:01:04;15.50;99.90
14349;DHT22;7258;50.376;8.742;2023-06-24T05:03:07;15.50;99.90
14349;DHT22;7258;50.376;8.742;2023-06-24T05:05:10;15.60;99.90
14349;DHT22;7258;50.376;8.742;2023-06-24T05:07:20;15.60;99.90
14349;DHT22;7258;50.376;8.742;2023-06-24T05:09:23;15.60;99.90
14349;DHT22;7258;50.376;8.742;2023-06-24T05:11:26;15.70;99.90
14349;DHT22;7258;50.376;8.742;2023-06-24T05:13:29;15.70;99.90
14349;DHT22;7258;50.376;8.742;2023-06-24T05:15:32;15.80;99.90
14349;DHT22;7258;50.376;8.742;2023-06-24T05:17:35;15.90;99.90
14349;DHT22;7258;50.376;8.742;2023-06-24T05:19:38;16.00;99.90
14349;DHT22;7258;50.376;8.742;2023-06-24T05:21:41;16.00;99.90
14349;DHT22;7258;50.376;8.742;2023-06-24T05:23:46;16.10;99.90
14349;DHT22;7258;50.376;8.742;2023-06-24T05:25:48;16.20;99.90
14349;DHT22;7258;50.376;8.742;2023-06-24T05:27:54;16.20;99.90
14349;DHT22;7258;50.376;8.742;2023-06-24T05:29:57;16.30;99.90
14349;DHT22;7258;50.376;8.742;2023-06-24T05:32:00;16.50;99.90
14349;DHT22;7258;50.376;8.742;2023-06-24T05:34:05;16.60;99.90
14349;DHT22;7258;50.376;8.742;2023-06-24T05:36:08;16.70;99.90
14349;DHT22;7258;50.376;8.742;2023-06-24T05:38:11;16.90;99.90
14349;DHT22;7258;50.376;8.742;2023-06-24T05:40:15;17.00;99.90
14349;DHT22;7258;50.376;8.742;2023-06-24T05:42:18;17.10;99.90
14349;DHT22;7258;50.376;8.742;2023-06-24T05:44:22;17.20;99.90
14349;DHT22;7258;50.376;8.742;2023-06-24T05:46:25;17.40;99.90
14349;DHT22;7258;50.376;8.742;2023-06-24T05:48:28;17.50;99.90
14349;DHT22;7258;50.376;8.742;2023-06-24T05:50:33;17.70;99.90
14349;DHT22;7258;50.376;8.742;2023-06-24T05:52:36;17.80;99.90
14349;DHT22;7258;50.376;8.742;2023-06-24T05:54:39;18.00;99.90
14349;DHT22;7258;50.376;8.742;2023-06-24T05:56:43;18.10;99.90
14349;DHT22;7258;50.376;8.742;2023-06-24T05:58:46;18.30;99.90
14349;DHT22;7258;50.376;8.742;2023-06-24T06:00:49;18.50;99.90
14349;DHT22;7258;50.376;8.742;2023-06-24T06:02:52;18.60;99.90
14349;DHT22;7258;50.376;8.742;2023-06-24T06:04:56;18.70;99.90
14349;DHT22;7258;50.376;8.742;2023-06-24T06:06:59;18.80;99.90
14349;DHT22;7258;50.376;8.742;2023-06-24T06:09:02;18.90;99.90
14349;DHT22;7258;50.376;8.742;2023-06-24T06:11:05;19.00;99.90
14349;DHT22;7258;50.376;8.742;2023-06-24T06:13:09;19.10;99.90
14349;DHT22;7258;50.376;8.742;2023-06-24T06:15:12;19.20;99.90
14349;DHT22;7258;50.376;8.742;2023-06-24T06:17:21;19.40;99.90
14349;DHT22;7258;50.376;8.742;2023-06-24T06:19:23;19.50;99.90
14349;DHT22;7258;50.376;8.742;2023-06-24T06:21:27;19.60;99.90
14349;DHT22;7258;50.376;8.742;2023-06-24T06:23:29;19.70;99.90
14349;DHT22;7258;50.376;8.742;2023-06-24T06:25:32;19.80;99.90
14349;DHT22;7258;50.376;8.742;2023-06-24T06:27:36;19.90;99.90
14349;DHT22;7258;50.376;8.742;2023-06-24T06:29:41;20.00;99.90
14349;DHT22;7258;50.376;8.742;2023-06-24T06:31:44;20.20;99.90
14349;DHT22;7258;50.376;8.742;2023-06-24T06:33:46;20.20;99.90
14349;DHT22;7258;50.376;8.742;2023-06-24T06:35:54;20.40;99.90
14349;DHT22;7258;50.376;8.742;2023-06-24T06:37:57;20.50;99.90
14349;DHT22;7258;50.376;8.742;2023-06-24T06:40:01;20.60;99.90
14349;DHT22;7258;50.376;8.742;2023-06-24T06:42:04;20.70;99.90
14349;DHT22;7258;50.376;8.742;2023-06-24T06:44:07;20.80;99.90
14349;DHT22;7258;50.376;8.742;2023-06-24T06:46:11;20.80;99.90
14349;DHT22;7258;50.376;8.742;2023-06-24T06:48:15;20.90;99.90
14349;DHT22;7258;50.376;8.742;2023-06-24T06:50:18;21.00;99.90
14349;DHT22;7258;50.376;8.742;2023-06-24T06:52:21;21.10;99.90
14349;DHT22;7258;50.376;8.742;2023-06-24T06:54:24;21.20;99.90
14349;DHT22;7258;50.376;8.742;2023-06-24T06:56:32;21.30;99.90
14349;DHT22;7258;50.376;8.742;2023-06-24T06:58:35;21.40;99.90
14349;DHT22;7258;50.376;8.742;2023-06-24T07:00:40;21.50;99.90
14349;DHT22;7258;50.376;8.742;2023-06-24T07:02:49;21.60;99.90
14349;DHT22;7258;50.376;8.742;2023-06-24T07:04:53;21.60;99.90
14349;DHT22;7258;50.376;8.742;2023-06-24T07:06:56;21.60;99.90
14349;DHT22;7258;50.376;8.742;2023-06-24T07:09:00;21.60;99.90
14349;DHT22;7258;50.376;8.742;2023-06-24T07:11:03;21.60;99.90
14349;DHT22;7258;50.376;8.742;2023-06-24T07:13:08;21.70;99.90
14349;DHT22;7258;50.376;8.742;2023-06-24T07:15:11;21.80;99.90
14349;DHT22;7258;50.376;8.742;2023-06-24T07:17:15;22.00;99.90
14349;DHT22;7258;50.376;8.742;2023-06-24T07:19:19;22.10;99.90
14349;DHT22;7258;50.376;8.742;2023-06-24T07:21:22;22.10;99.90
14349;DHT22;7258;50.376;8.742;2023-06-24T07:23:26;22.20;99.90
14349;DHT22;7258;50.376;8.742;2023-06-24T07:25:28;22.40;99.90
14349;DHT22;7258;50.376;8.742;2023-06-24T07:27:31;22.50;99.90
14349;DHT22;7258;50.376;8.742;2023-06-24T07:29:36;22.60;99.90
14349;DHT22;7258;50.376;8.742;2023-06-24T07:31:39;22.70;99.90
14349;DHT22;7258;50.376;8.742;2023-06-24T07:33:42;22.80;99.90
14349;DHT22;7258;50.376;8.742;2023-06-24T07:35:46;22.90;99.90
14349;DHT22;7258;50.376;8.742;2023-06-24T07:37:50;23.00;99.90
14349;DHT22;7258;50.376;8.742;2023-06-24T07:39:53;23.00;99.90
14349;DHT22;7258;50.376;8.742;2023-06-24T07:41:55;23.10;99.90
14349;DHT22;7258;50.376;8.742;2023-06-24T07:43:58;23.20;99.90
14349;DHT22;7258;50.376;8.742;2023-06-24T07:46:04;23.30;99.90
14349;DHT22;7258;50.376;8.742;2023-06-24T07:48:13;23.40;99.90
14349;DHT22;7258;50.376;8.742;2023-06-24T07:50:16;23.50;99.90
14349;DHT22;7258;50.376;8.742;2023-06-24T07:52:21;23.60;99.90
14349;DHT22;7258;50.376;8.742;2023-06-24T07:54:26;23.70;99.90
14349;DHT22;7258;50.376;8.742;2023-06-24T07:56:29;23.90;99.90
14349;DHT22;7258;50.376;8.742;2023-06-24T07:58:33;23.90;99.90
14349;DHT22;7258;50.376;8.742;2023-06-24T08:00:42;23.90;99.90
14349;DHT22;7258;50.376;8.742;2023-06-24T08:02:46;24.00;99.90
14349;DHT22;7258;50.376;8.742;2023-06-24T08:04:49;24.10;99.90
14349;DHT22;7258;50.376;8.742;2023-06-24T08:06:52;24.10;99.90
14349;DHT22;7258;50.376;8.742;2023-06-24T08:08:57;24.10;99.90
14349;DHT22;7258;50.376;8.742;2023-06-24T08:11:00;24.20;99.90
14349;DHT22;7258;50.376;8.742;2023-06-24T08:13:03;24.30;99.90
14349;DHT22;7258;50.376;8.742;2023-06-24T08:15:07;24.40;99.90
14349;DHT22;7258;50.376;8.742;2023-06-24T08:17:10;24.30;99.90
14349;DHT22;7258;50.376;8.742;2023-06-24T08:19:13;24.40;99.90
14349;DHT22;7258;50.376;8.742;2023-06-24T08:21:19;24.50;99.90
14349;DHT22;7258;50.376;8.742;2023-06-24T08:23:22;24.50;99.90
14349;DHT22;7258;50.376;8.742;2023-06-24T08:25:27;24.60;99.90
14349;DHT22;7258;50.376;8.742;2023-06-24T08:27:30;24.80;99.90
14349;DHT22;7258;50.376;8.742;2023-06-24T08:29:33;24.90;99.90
14349;DHT22;7258;50.376;8.742;2023-06-24T08:31:36;25.00;99.90
14349;DHT22;7258;50.376;8.742;2023-06-24T08:33:38;25.20;99.60
14349;DHT22;7258;50.376;8.742;2023-06-24T08:35:41;25.40;99.50
14349;DHT22;7258;50.376;8.742;2023-06-24T08:37:44;25.50;99.20
14349;DHT22;7258;50.376;8.742;2023-06-24T08:39:47;25.40;98.60
14349;DHT22;7258;50.376;8.742;2023-06-24T08:41:52;25.50;98.70
14349;DHT22;7258;50.376;8.742;2023-06-24T08:43:55;25.60;98.50
14349;DHT22;7258;50.376;8.742;2023-06-24T08:45:58;25.70;98.20
14349;DHT22;7258;50.376;8.742;2023-06-24T08:48:04;25.80;98.10
14349;DHT22;7258;50.376;8.742;2023-06-24T08:50:11;25.90;97.70
14349;DHT22;7258;50.376;8.742;2023-06-24T08:52:16;26.00;97.30
14349;DHT22;7258;50.376;8.742;2023-06-24T08:54:20;26.10;97.00
14349;DHT22;7258;50.376;8.742;2023-06-24T08:56:24;26.10;96.60
14349;DHT22;7258;50.376;8.742;2023-06-24T08:58:29;26.10;95.90
14349;DHT22;7258;50.376;8.742;2023-06-24T09:00:32;26.20;95.90
14349;DHT22;7258;50.376;8.742;2023-06-24T09:02:36;26.20;95.90
14349;DHT22;7258;50.376;8.742;2023-06-24T09:04:40;26.30;95.60
14349;DHT22;7258;50.376;8.742;2023-06-24T09:06:43;26.50;95.60
14349;DHT22;7258;50.376;8.742;2023-06-24T09:08:53;26.60;94.80
14349;DHT22;7258;50.376;8.742;2023-06-24T09:10:56;26.70;94.50
14349;DHT22;7258;50.376;8.742;2023-06-24T09:12:59;26.70;94.80
14349;DHT22;7258;50.376;8.742;2023-06-24T09:15:05;26.50;95.10
14349;DHT22;7258;50.376;8.742;2023-06-24T09:17:09;26.60;95.30
14349;DHT22;7258;50.376;8.742;2023-06-24T09:19:12;26.80;95.00
14349;DHT22;7258;50.376;8.742;2023-06-24T09:21:21;26.80;94.80
14349;DHT22;7258;50.376;8.742;2023-06-24T09:23:26;26.80;94.00
14349;DHT22;7258;50.376;8.742;2023-06-24T09:25:31;26.70;94.00
14349;DHT22;7258;50.376;8.742;2023-06-24T09:27:34;26.60;93.70
14349;DHT22;7258;50.376;8.742;2023-06-24T09:29:37;26.50;94.10
14349;DHT22;7258;50.376;8.742;2023-06-24T09:31:49;26.60;94.40
14349;DHT22;7258;50.376;8.742;2023-06-24T09:34:00;26.80;93.90
14349;DHT22;7258;50.376;8.742;2023-06-24T09:36:04;27.10;93.40
14349;DHT22;7258;50.376;8.742;2023-06-24T09:38:09;27.30;93.20
14349;DHT22;7258;50.376;8.742;2023-06-24T09:40:12;27.60;93.20
14349;DHT22;7258;50.376;8.742;2023-06-24T09:42:20;27.70;92.60
14349;DHT22;7258;50.376;8.742;2023-06-24T09:44:24;27.80;92.60
14349;DHT22;7258;50.376;8.742;2023-06-24T09:46:28;27.80;91.70
14349;DHT22;7258;50.376;8.742;2023-06-24T09:48:34;27.80;92.10
14349;DHT22;7258;50.376;8.742;2023-06-24T09:50:37;27.80;92.00
14349;DHT22;7258;50.376;8.742;2023-06-24T09:52:40;27.90;92.10
14349;DHT22;7258;50.376;8.742;2023-06-24T09:54:46;27.90;91.80
14349;DHT22;7258;50.376;8.742;2023-06-24T09:56:54;27.80;91.40
14349;DHT22;7258;50.376;8.742;2023-06-24T09:58:58;27.90;91.40
14349;DHT22;7258;50.376;8.742;2023-06-24T10:01:02;27.70;91.70
14349;DHT22;7258;50.376;8.742;2023-06-24T10:03:06;27.80;91.60
14349;DHT22;7258;50.376;8.742;2023-06-24T10:05:12;28.00;90.90
14349;DHT22;7258;50.376;8.742;2023-06-24T10:07:15;28.10;90.70
14349;DHT22;7258;50.376;8.742;2023-06-24T10:09:19;28.20;90.60
14349;DHT22;7258;50.376;8.742;2023-06-24T10:14:35;28.60;90.40
14349;DHT22;7258;50.376;8.742;2023-06-24T10:17:30;28.90;90.10
14349;DHT22;7258;50.376;8.742;2023-06-24T10:19:44;29.20;89.10
14349;DHT22;7258;50.376;8.742;2023-06-24T10:25:37;28.70;89.40
14349;DHT22;7258;50.376;8.742;2023-06-24T10:27:54;28.80;88.70
14349;DHT22;7258;50.376;8.742;2023-06-24T10:30:04;29.10;89.10
14349;DHT22;7258;50.376;8.742;2023-06-24T10:32:48;29.30;88.10
14349;DHT22;7258;50.376;8.742;2023-06-24T10:37:50;29.50;87.30
14349;DHT22;7258;50.376;8.742;2023-06-24T10:45:46;30.20;84.50
14349;DHT22;7258;50.376;8.742;2023-06-24T10:48:11;30.20;84.30
14349;DHT22;7258;50.376;8.742;2023-06-24T10:53:50;30.40;84.50
14349;DHT22;7258;50.376;8.742;2023-06-24T10:56:37;30.40;84.30
14349;DHT22;7258;50.376;8.742;2023-06-24T10:59:57;30.60;85.10
14349;DHT22;7258;50.376;8.742;2023-06-24T11:03:07;30.90;83.30
14349;DHT22;7258;50.376;8.742;2023-06-24T11:08:03;30.70;82.30
14349;DHT22;7258;50.376;8.742;2023-06-24T11:09:30;30.30;82.20
14349;DHT22;7258;50.376;8.742;2023-06-24T11:11:56;29.70;83.80
14349;DHT22;7258;50.376;8.742;2023-06-24T11:15:00;29.50;85.00
14349;DHT22;7258;50.376;8.742;2023-06-24T11:17:38;29.60;85.00
14349;DHT22;7258;50.376;8.742;2023-06-24T11:24:08;29.80;84.50
14349;DHT22;7258;50.376;8.742;2023-06-24T11:27:03;29.40;85.20
14349;DHT22;7258;50.376;8.742;2023-06-24T11:29:16;29.10;85.60
14349;DHT22;7258;50.376;8.742;2023-06-24T11:31:50;29.00;86.30
14349;DHT22;7258;50.376;8.742;2023-06-24T11:34:33;29.10;86.70
14349;DHT22;7258;50.376;8.742;2023-06-24T11:37:31;29.00;85.80
14349;DHT22;7258;50.376;8.742;2023-06-24T11:40:07;28.70;86.80
14349;DHT22;7258;50.376;8.742;2023-06-24T11:42:23;28.70;86.90
14349;DHT22;7258;50.376;8.742;2023-06-24T11:45:28;28.90;87.50
14349;DHT22;7258;50.376;8.742;2023-06-24T12:12:00;29.90;82.70
14349;DHT22;7258;50.376;8.742;2023-06-24T12:14:11;30.20;81.90
14349;DHT22;7258;50.376;8.742;2023-06-24T12:16:24;30.60;81.90
14349;DHT22;7258;50.376;8.742;2023-06-24T12:18:35;30.80;80.80
14349;DHT22;7258;50.376;8.742;2023-06-24T12:20:52;30.60;79.80
14349;DHT22;7258;50.376;8.742;2023-06-24T12:23:19;30.20;80.70
14349;DHT22;7258;50.376;8.742;2023-06-24T12:26:19;29.80;82.40
14349;DHT22;7258;50.376;8.742;2023-06-24T12:28:35;29.60;82.40
14349;DHT22;7258;50.376;8.742;2023-06-24T12:30:40;29.60;82.00
14349;DHT22;7258;50.376;8.742;2023-06-24T12:32:44;29.60;82.60
14349;DHT22;7258;50.376;8.742;2023-06-24T12:34:53;29.70;82.40
14349;DHT22;7258;50.376;8.742;2023-06-24T12:37:13;30.00;82.90
14349;DHT22;7258;50.376;8.742;2023-06-24T12:39:18;30.20;80.10
14349;DHT22;7258;50.376;8.742;2023-06-24T12:41:24;30.30;79.70
14349;DHT22;7258;50.376;8.742;2023-06-24T12:43:54;30.40;80.20
14349;DHT22;7258;50.376;8.742;2023-06-24T12:47:22;30.00;79.80
14349;DHT22;7258;50.376;8.742;2023-06-24T12:58:04;31.10;79.20
14349;DHT22;7258;50.376;8.742;2023-06-24T13:11:01;32.00;76.40
14349;DHT22;7258;50.376;8.742;2023-06-24T13:13:05;32.30;76.30
14349;DHT22;7258;50.376;8.742;2023-06-24T13:15:10;32.30;75.40
14349;DHT22;7258;50.376;8.742;2023-06-24T13:17:14;31.80;76.00
14349;DHT22;7258;50.376;8.742;2023-06-24T13:19:18;31.80;75.40
14349;DHT22;7258;50.376;8.742;2023-06-24T13:21:21;31.70;75.70
14349;DHT22;7258;50.376;8.742;2023-06-24T13:23:25;31.60;75.80
14349;DHT22;7258;50.376;8.742;2023-06-24T13:25:31;31.60;76.20
14349;DHT22;7258;50.376;8.742;2023-06-24T13:27:38;31.50;76.30
14349;DHT22;7258;50.376;8.742;2023-06-24T13:29:42;31.20;76.20
14349;DHT22;7258;50.376;8.742;2023-06-24T13:31:45;31.00;76.60
14349;DHT22;7258;50.376;8.742;2023-06-24T13:33:48;30.80;77.30
14349;DHT22;7258;50.376;8.742;2023-06-24T13:35:52;30.30;77.10
14349;DHT22;7258;50.376;8.742;2023-06-24T13:37:55;30.10;77.60
14349;DHT22;7258;50.376;8.742;2023-06-24T13:40:01;30.00;77.40
14349;DHT22;7258;50.376;8.742;2023-06-24T13:42:05;30.00;77.80
14349;DHT22;7258;50.376;8.742;2023-06-24T13:44:08;29.90;78.30
14349;DHT22;7258;50.376;8.742;2023-06-24T13:46:11;29.90;78.50
14349;DHT22;7258;50.376;8.742;2023-06-24T13:48:14;29.80;78.10
14349;DHT22;7258;50.376;8.742;2023-06-24T13:50:21;29.90;77.90
14349;DHT22;7258;50.376;8.742;2023-06-24T13:52:25;30.00;77.80
14349;DHT22;7258;50.376;8.742;2023-06-24T13:54:28;29.90;77.30
14349;DHT22;7258;50.376;8.742;2023-06-24T13:56:35;29.80;77.50
14349;DHT22;7258;50.376;8.742;2023-06-24T13:58:39;29.90;78.70
14349;DHT22;7258;50.376;8.742;2023-06-24T14:00:42;29.90;79.00
14349;DHT22;7258;50.376;8.742;2023-06-24T14:02:45;30.00;79.30
14349;DHT22;7258;50.376;8.742;2023-06-24T14:04:48;30.00;79.50
14349;DHT22;7258;50.376;8.742;2023-06-24T14:06:51;29.80;78.50
14349;DHT22;7258;50.376;8.742;2023-06-24T14:08:55;29.70;78.50
14349;DHT22;7258;50.376;8.742;2023-06-24T14:10:59;29.60;78.90
14349;DHT22;7258;50.376;8.742;2023-06-24T14:13:04;29.60;78.50
14349;DHT22;7258;50.376;8.742;2023-06-24T14:15:08;29.60;78.20
14349;DHT22;7258;50.376;8.742;2023-06-24T14:17:14;29.70;78.70
14349;DHT22;7258;50.376;8.742;2023-06-24T14:19:25;29.90;78.70
14349;DHT22;7258;50.376;8.742;2023-06-24T14:21:28;30.00;78.40
14349;DHT22;7258;50.376;8.742;2023-06-24T14:23:34;30.30;78.10
14349;DHT22;7258;50.376;8.742;2023-06-24T14:25:37;30.70;77.10
14349;DHT22;7258;50.376;8.742;2023-06-24T14:27:41;31.20;76.40
14349;DHT22;7258;50.376;8.742;2023-06-24T14:29:47;31.40;74.40
14349;DHT22;7258;50.376;8.742;2023-06-24T14:31:51;31.50;74.30
14349;DHT22;7258;50.376;8.742;2023-06-24T14:33:55;31.50;74.10
14349;DHT22;7258;50.376;8.742;2023-06-24T14:35:57;31.40;73.60
14349;DHT22;7258;50.376;8.742;2023-06-24T14:38:00;31.40;73.80
14349;DHT22;7258;50.376;8.742;2023-06-24T14:40:04;31.40;75.00
14349;DHT22;7258;50.376;8.742;2023-06-24T14:42:08;31.50;75.00
14349;DHT22;7258;50.376;8.742;2023-06-24T14:44:12;31.80;74.40